KHWY

Warrenton-Fauquier Airport

Warrenton, Virginia, USA
METAR KHWY 110235Z AUTO 00000KT 10SM CLR M06/M08 A3020 RMK AO2 T10591079
Observed Flight Rules
Dec-11 @ 02:35 UTC (30 minutes ago) Visual Flight Rules
Visibility Clouds
10 miles
  • Clear skies
Temperatures Readings
Current -6°C / 21°F
Dewpoint -8°C / 18°F
Humidity 86%
Altimeter 30.2" Hg
Pressure 1023 hPa
Elevation 103
METAR KHWY 110235Z AUTO 00000KT 10SM CLR M06/M08 A3020 RMK AO2 T10591079
Observed Flight Rules
Dec-11 @ 02:35 UTC
(30 minutes ago)
VFR
Clouds
  • Clear skies
Temperature Dewpoint
-6°C / 21°F -8°C / 18°F
Humidity Altimeter Pressure
86% 30.2" Hg 1023 hPa